Time;durP1;ratioP1;P1;durP2;ratioP2;P2;SDS_P1;SDS_P2;PMS_P1;PMS_P2;Temp;Humidity;BMP_temperature;BMP_pressure;BME280_temperature;BME280_humidity;BME280_pressure;Samples;Min_cycle;Max_cycle;Signal;HPM_P1;HPM_P2
2021/05/11 00:02:06;;;;;;;4.20;3.80;;;;;;;14.37;100.00;99623.38;628728;227;24858;-73
2021/05/11 00:04:34;;;;;;;5.10;4.60;;;;;;;14.45;100.00;99602.85;638633;224;24874;-73
2021/05/11 00:07:02;;;;;;;5.40;4.77;;;;;;;14.43;100.00;99604.81;638972;224;24823;-77
2021/05/11 00:09:30;;;;;;;5.07;4.40;;;;;;;14.42;100.00;99601.89;628983;228;25142;-72
2021/05/11 00:11:58;;;;;;;4.40;4.00;;;;;;;14.42;100.00;99590.11;636861;225;24778;-73
2021/05/11 00:14:25;;;;;;;3.83;3.53;;;;;;;14.21;100.00;99577.80;624170;229;24827;-74
2021/05/11 00:16:53;;;;;;;3.43;3.13;;;;;;;14.05;100.00;99572.78;623771;229;24856;-72
2021/05/11 00:19:21;;;;;;;4.33;3.73;;;;;;;14.03;100.00;99580.01;637097;224;27027;-72
2021/05/11 00:21:49;;;;;;;3.93;3.63;;;;;;;14.07;100.00;99584.67;625372;229;24859;-72
2021/05/11 00:24:17;;;;;;;4.80;4.03;;;;;;;14.19;100.00;99581.09;641318;223;24859;-73
2021/05/11 00:26:45;;;;;;;4.45;3.65;;;;;;;14.62;100.00;99574.63;633890;224;32709;-72
2021/05/11 00:29:13;;;;;;;3.57;3.27;;;;;;;14.24;100.00;99575.64;638419;224;23730;-73
2021/05/11 00:31:41;;;;;;;4.70;4.00;;;;;;;14.54;100.00;99573.77;634533;224;32703;-73
2021/05/11 00:34:09;;;;;;;6.17;5.00;;;;;;;14.17;100.00;99585.20;638329;224;24917;-73
2021/05/11 00:36:36;;;;;;;6.58;5.80;;;;;;;14.81;100.00;99580.56;620543;228;32801;-73
2021/05/11 00:39:05;;;;;;;6.33;5.73;;;;;;;14.37;100.00;99593.30;639561;224;23739;-72
2021/05/11 00:41:33;;;;;;;5.70;5.20;;;;;;;14.22;100.00;99602.48;640450;224;24820;-72
2021/05/11 00:44:01;;;;;;;8.43;7.62;;;;;;;14.46;100.00;99597.43;634308;224;32703;-72
2021/05/11 00:46:30;;;;;;;9.55;8.58;;;;;;;14.63;100.00;99594.07;632381;224;32668;-72
2021/05/11 00:48:56;;;;;;;9.40;7.07;;;;;;;13.97;100.00;99598.55;639640;224;22912;-72
2021/05/11 00:51:24;;;;;;;9.20;6.93;;;;;;;14.00;100.00;99599.49;640146;224;24827;-72
2021/05/11 00:53:52;;;;;;;6.93;6.30;;;;;;;13.66;100.00;99592.22;640621;224;24816;-72
2021/05/11 00:56:21;;;;;;;6.43;5.30;;;;;;;13.74;100.00;99592.11;640663;222;24860;-72
2021/05/11 00:58:48;;;;;;;7.53;6.07;;;;;;;13.78;100.00;99588.64;639797;223;27993;-72
2021/05/11 01:01:16;;;;;;;4.80;4.33;;;;;;;13.71;100.00;99588.56;640161;224;24807;-72
2021/05/11 01:03:44;;;;;;;4.27;3.90;;;;;;;13.62;100.00;99588.33;639516;223;24869;-73
2021/05/11 01:06:12;;;;;;;3.90;3.50;;;;;;;13.69;100.00;99584.52;639086;224;24831;-72
2021/05/11 01:08:39;;;;;;;3.67;3.37;;;;;;;13.71;100.00;99593.79;624554;229;24809;-74
2021/05/11 01:11:07;;;;;;;3.47;3.23;;;;;;;13.77;100.00;99587.83;637178;223;24852;-72
2021/05/11 01:13:35;;;;;;;3.33;3.00;;;;;;;13.66;100.00;99579.16;625671;229;24857;-72
2021/05/11 01:16:03;;;;;;;3.37;3.07;;;;;;;13.68;100.00;99575.86;625886;228;26997;-72
2021/05/11 01:18:33;;;;;;;3.20;3.00;;;;;;;13.66;100.00;99575.23;625740;228;24898;-72
2021/05/11 01:21:13;;;;;;;3.57;2.60;;;;;;;13.51;100.00;99571.78;627177;227;24925;-72
2021/05/11 01:26:22;;;;;;;4.70;2.33;;;;;;;13.61;100.00;99560.08;633256;225;24791;-72
2021/05/11 01:28:51;;;;;;;3.63;3.33;;;;;;;13.66;100.00;99560.86;625673;229;23851;-73
2021/05/11 01:47:07;;;;;;;3.07;2.87;;;;;;;13.73;100.00;99549.17;632247;227;24881;-73
2021/05/11 01:49:47;;;;;;;3.90;3.50;;;;;;;14.28;100.00;99536.03;633290;224;32735;-72
2021/05/11 01:52:21;;;;;;;3.70;3.40;;;;;;;13.77;100.00;99546.00;624335;229;22731;-72
2021/05/11 01:54:51;;;;;;;4.03;3.67;;;;;;;13.64;100.00;99545.34;624684;229;24828;-72
2021/05/11 02:18:30;;;;;;;3.30;3.10;;;;;;;13.46;100.00;99521.89;621579;229;24923;-72
2021/05/11 02:23:25;;;;;;;3.80;3.50;;;;;;;13.55;100.00;99541.22;638692;224;24858;-71
2021/05/11 02:25:50;;;;;;;3.67;3.13;;;;;;;13.74;100.00;99539.84;625699;229;23859;-72
2021/05/11 02:28:18;;;;;;;4.37;3.70;;;;;;;13.64;100.00;99536.19;641616;223;25043;-73
2021/05/11 02:30:46;;;;;;;3.13;2.93;;;;;;;13.76;100.00;99546.19;639526;224;24841;-73
2021/05/11 02:33:14;;;;;;;4.13;3.80;;;;;;;13.65;100.00;99548.76;623521;229;33392;-72
2021/05/11 02:35:42;;;;;;;4.00;3.70;;;;;;;13.64;100.00;99549.26;626012;228;24924;-71
2021/05/11 02:38:09;;;;;;;3.83;3.53;;;;;;;13.69;100.00;99545.31;633439;224;28006;-72
2021/05/11 02:40:37;;;;;;;3.03;2.73;;;;;;;13.71;100.00;99539.41;638084;224;23926;-71
2021/05/11 02:43:09;;;;;;;4.27;3.90;;;;;;;13.82;100.00;99542.37;641733;224;24812;-72
2021/05/11 02:45:35;;;;;;;4.03;3.73;;;;;;;13.64;100.00;99545.34;638322;224;24873;-72
2021/05/11 02:48:01;;;;;;;4.37;3.97;;;;;;;13.83;100.00;99547.09;638202;224;24950;-72
2021/05/11 02:50:29;;;;;;;3.47;3.27;;;;;;;13.66;100.00;99532.92;640321;224;24895;-72
2021/05/11 02:52:57;;;;;;;3.57;2.80;;;;;;;13.51;100.00;99537.82;638239;224;24850;-72
2021/05/11 02:55:25;;;;;;;3.73;3.43;;;;;;;13.68;100.00;99531.94;640909;224;23920;-72
2021/05/11 02:57:54;;;;;;;4.67;4.27;;;;;;;13.51;100.00;99530.82;624927;229;24927;-73
2021/05/11 03:00:21;;;;;;;5.83;5.10;;;;;;;13.99;100.00;99535.13;619751;229;33012;-72
2021/05/11 03:02:49;;;;;;;7.40;4.90;;;;;;;13.69;100.00;99540.09;626009;227;23748;-72
2021/05/11 03:05:17;;;;;;;4.67;4.30;;;;;;;13.54;100.00;99546.63;624258;228;24844;-72
2021/05/11 03:07:45;;;;;;;4.20;3.80;;;;;;;13.68;100.00;99538.47;626062;229;23926;-73
2021/05/11 03:10:13;;;;;;;5.80;4.00;;;;;;;13.55;100.00;99535.99;637556;224;24925;-72
2021/05/11 03:12:41;;;;;;;3.90;3.60;;;;;;;13.60;100.00;99531.52;638444;224;24791;-72
2021/05/11 03:15:09;;;;;;;4.67;3.93;;;;;;;13.58;100.00;99528.28;637132;225;24792;-72
2021/05/11 03:17:37;;;;;;;3.27;3.07;;;;;;;13.48;100.00;99519.41;637676;224;24799;-72
2021/05/11 03:20:06;;;;;;;4.63;3.60;;;;;;;13.41;100.00;99522.44;642889;222;24877;-71
2021/05/11 03:22:34;;;;;;;3.10;2.90;;;;;;;13.39;100.00;99523.12;640515;223;25127;-72
2021/05/11 03:25:02;;;;;;;3.90;3.60;;;;;;;14.00;100.00;99517.13;635345;224;32715;-72
2021/05/11 03:27:41;;;;;;;4.00;3.60;;;;;;;13.57;100.00;99507.06;641643;223;23842;-72
2021/05/11 03:30:11;;;;;;;3.40;3.10;;;;;;;13.39;100.00;99508.75;642123;222;24840;-71
2021/05/11 03:32:39;;;;;;;3.53;3.27;;;;;;;13.36;100.00;99513.01;635391;225;24826;-72
2021/05/11 03:35:07;;;;;;;3.97;3.67;;;;;;;13.28;100.00;99512.62;627265;228;24857;-72
2021/05/11 03:37:35;;;;;;;3.67;3.37;;;;;;;13.24;100.00;99498.80;634190;225;24825;-71
2021/05/11 03:40:03;;;;;;;3.10;2.90;;;;;;;13.19;100.00;99491.48;619013;230;28123;-72
2021/05/11 03:42:34;;;;;;;3.30;3.00;;;;;;;13.11;100.00;99486.83;645238;222;24827;-72
2021/05/11 03:45:01;;;;;;;2.80;2.60;;;;;;;13.02;100.00;99474.34;632129;225;26079;-72
2021/05/11 03:47:28;;;;;;;9.08;3.50;;;;;;;13.58;100.00;99451.20;611376;231;33093;-72
2021/05/11 03:49:54;;;;;;;5.60;3.20;;;;;;;12.87;100.00;99454.76;632238;222;23711;-72
2021/05/11 03:52:22;;;;;;;3.10;2.90;;;;;;;12.75;100.00;99467.92;625271;227;24865;-72
2021/05/11 03:54:50;;;;;;;3.43;3.13;;;;;;;12.80;100.00;99483.84;627260;227;24958;-72
2021/05/11 03:57:18;;;;;;;4.60;4.20;;;;;;;13.65;100.00;99482.97;628962;225;45727;-73
2021/05/11 03:59:46;;;;;;;4.27;3.87;;;;;;;13.30;100.00;99479.78;636047;222;23700;-71
2021/05/11 04:02:14;;;;;;;3.63;3.33;;;;;;;13.10;100.00;99479.50;626136;227;24855;-72
2021/05/11 04:04:42;;;;;;;4.00;3.70;;;;;;;13.03;100.00;99477.27;643205;222;24831;-71
2021/05/11 04:07:12;;;;;;;4.40;3.90;;;;;;;12.92;100.00;99473.79;645187;222;24831;-71
2021/05/11 04:09:41;;;;;;;4.10;3.07;;;;;;;12.76;100.00;99479.98;641608;220;24796;-71
2021/05/11 04:12:23;;;;;;;3.70;3.50;;;;;;;12.82;100.00;99482.39;644428;222;25038;-72
2021/05/11 04:17:15;;;;;;;5.60;4.40;;;;;;;12.96;100.00;99478.99;632649;225;23702;-71
2021/05/11 04:19:43;;;;;;;20.87;4.00;;;;;;;12.70;100.00;99464.55;634838;223;24834;-73
2021/05/11 04:22:11;;;;;;;18.20;4.20;;;;;;;12.68;100.00;99480.07;632743;225;24831;-72
2021/05/11 04:24:39;;;;;;;3.53;3.23;;;;;;;12.59;100.00;99492.86;631366;225;24834;-71
2021/05/11 04:27:07;;;;;;;2.60;2.40;;;;;;;12.81;100.00;99501.16;616549;232;24930;-72
2021/05/11 04:29:35;;;;;;;10.73;2.73;;;;;;;12.96;100.00;99497.27;630840;223;24823;-72
2021/05/11 04:32:04;;;;;;;3.40;3.10;;;;;;;12.88;100.00;99492.92;634802;224;24800;-72
2021/05/11 04:34:31;;;;;;;3.30;3.03;;;;;;;12.93;100.00;99502.32;635581;224;24930;-71
2021/05/11 04:37:00;;;;;;;3.70;3.40;;;;;;;13.04;100.00;99507.11;626450;227;26056;-72
2021/05/11 04:39:28;;;;;;;5.30;4.80;;;;;;;13.71;100.00;99501.51;621442;225;32724;-72
2021/05/11 04:41:56;;;;;;;3.80;3.50;;;;;;;13.30;100.00;99494.96;621228;229;24847;-72
2021/05/11 04:44:28;;;;;;;3.80;3.50;;;;;;;13.17;100.00;99489.52;634602;225;23833;-72
2021/05/11 04:46:58;;;;;;;2.70;2.50;;;;;;;12.90;100.00;99472.67;638912;225;24845;-73
2021/05/11 04:49:20;;;;;;;3.80;3.50;;;;;;;12.88;100.00;99462.91;637776;221;24834;-73
2021/05/11 04:51:48;;;;;;;3.73;3.43;;;;;;;12.75;100.00;99475.75;633635;225;24847;-73
2021/05/11 04:54:16;;;;;;;6.00;2.93;;;;;;;12.76;100.00;99475.57;632558;225;26935;-72
2021/05/11 04:56:45;;;;;;;3.57;3.37;;;;;;;12.85;100.00;99475.50;633442;225;26953;-75
2021/05/11 04:59:13;;;;;;;2.73;2.53;;;;;;;13.01;100.00;99482.67;632866;225;28037;-72
2021/05/11 05:01:43;;;;;;;7.80;4.80;;;;;;;13.16;100.00;99483.17;643103;222;24825;-72
2021/05/11 05:04:11;;;;;;;4.57;4.20;;;;;;;13.36;100.00;99479.05;640940;222;24954;-72
2021/05/11 05:06:37;;;;;;;4.50;4.20;;;;;;;14.04;100.00;99477.84;635890;222;32680;-72
2021/05/11 05:09:06;;;;;;;4.57;4.20;;;;;;;13.84;100.00;99490.71;626763;224;23708;-72
2021/05/11 05:11:39;;;;;;;3.17;2.97;;;;;;;13.80;100.00;99494.70;630444;225;24817;-72
2021/05/11 05:14:02;;;;;;;4.47;4.07;;;;;;;13.86;100.00;99489.22;615416;231;24919;-72
2021/05/11 05:16:32;;;;;;;4.77;4.37;;;;;;;14.21;100.00;99458.29;635961;222;32703;-72
2021/05/11 05:18:58;;;;;;;3.93;3.63;;;;;;;13.75;100.00;99472.20;627149;225;24804;-71
2021/05/11 05:21:26;;;;;;;4.10;3.80;;;;;;;13.78;100.00;99463.98;619685;231;27110;-71
2021/05/11 05:24:02;;;;;;;4.70;4.30;;;;;;;13.82;100.00;99463.14;615086;231;26052;-72
2021/05/11 05:26:29;;;;;;;4.30;3.57;;;;;;;13.94;100.00;99473.44;631073;225;24831;-72
2021/05/11 05:28:57;;;;;;;4.80;3.90;;;;;;;14.16;100.00;99490.75;627692;225;24824;-71
2021/05/11 05:31:23;;;;;;;5.27;4.77;;;;;;;13.96;100.00;99496.28;641382;222;26149;-72
2021/05/11 05:33:51;;;;;;;5.10;4.13;;;;;;;14.01;100.00;99495.22;642063;222;24829;-72
2021/05/11 05:36:21;;;;;;;3.70;3.40;;;;;;;14.22;100.00;99499.67;627250;227;23864;-72
2021/05/11 05:38:50;;;;;;;4.57;3.67;;;;;;;14.46;100.00;99503.73;616808;229;25010;-75
2021/05/11 05:41:21;;;;;;;3.73;3.43;;;;;;;14.48;100.00;99513.51;620917;230;24904;-73
2021/05/11 05:43:47;;;;;;;4.23;3.87;;;;;;;14.53;100.00;99519.01;632466;225;24847;-73
2021/05/11 05:46:15;;;;;;;4.57;4.17;;;;;;;14.53;100.00;99508.54;625639;228;24875;-72
2021/05/11 05:48:44;;;;;;;4.60;4.17;;;;;;;14.53;100.00;99506.73;641844;219;23862;-74
2021/05/11 05:51:12;;;;;;;4.20;3.80;;;;;;;15.03;100.00;99506.20;628409;225;32790;-73
2021/05/11 05:53:39;;;;;;;4.50;4.10;;;;;;;14.43;100.00;99514.55;633325;225;22812;-73
2021/05/11 05:56:07;;;;;;;3.92;3.62;;;;;;;15.16;100.00;99497.62;612417;233;33504;-71
2021/05/11 05:58:35;;;;;;;4.35;3.95;;;;;;;15.44;99.44;99487.90;608522;231;44393;-71
2021/05/11 06:01:04;;;;;;;4.10;3.80;;;;;;;14.84;100.00;99489.36;619340;231;24869;-72
2021/05/11 06:03:36;;;;;;;4.57;3.70;;;;;;;14.62;100.00;99486.45;620896;230;24920;-72
2021/05/11 06:06:04;;;;;;;3.47;3.27;;;;;;;14.47;100.00;99494.88;617070;231;24903;-72
2021/05/11 06:08:31;;;;;;;3.87;3.57;;;;;;;14.63;100.00;99496.42;629738;221;28013;-72
2021/05/11 06:11:04;;;;;;;3.70;3.40;;;;;;;14.71;100.00;99498.42;621628;228;24920;-71
2021/05/11 06:13:35;;;;;;;3.70;3.40;;;;;;;14.76;100.00;99502.58;631103;227;24840;-72
2021/05/11 06:18:50;;;;;;;4.20;3.90;;;;;;;14.96;100.00;99509.78;629455;221;24943;-72
2021/05/11 06:21:17;;;;;;;4.60;4.20;;;;;;;15.42;99.50;99513.49;634037;222;43660;-72
2021/05/11 06:23:45;;;;;;;4.70;4.30;;;;;;;15.54;98.07;99503.78;635438;222;32753;-72
2021/05/11 06:26:13;;;;;;;3.97;3.67;;;;;;;15.04;100.00;99516.17;638480;224;23766;-72
2021/05/11 06:28:43;;;;;;;6.90;4.27;;;;;;;14.97;100.00;99516.14;639855;221;24824;-72
2021/05/11 06:31:10;;;;;;;4.07;3.77;;;;;;;14.78;100.00;99508.45;642283;222;24839;-72
2021/05/11 06:33:37;;;;;;;5.90;3.70;;;;;;;14.76;100.00;99506.50;634696;225;23859;-72
2021/05/11 06:36:06;;;;;;;3.60;3.30;;;;;;;14.65;100.00;99499.19;642635;222;23833;-72
2021/05/11 06:38:34;;;;;;;4.97;3.43;;;;;;;14.75;100.00;99476.09;645727;219;24831;-71
2021/05/11 06:41:02;;;;;;;3.37;3.10;;;;;;;14.58;100.00;99468.71;634402;225;24831;-72
2021/05/11 06:43:31;;;;;;;3.10;2.90;;;;;;;14.45;100.00;99462.37;640406;222;23838;-72
2021/05/11 06:48:56;;;;;;;3.30;3.00;;;;;;;14.66;100.00;99453.69;630528;225;23698;-72
2021/05/11 06:53:52;;;;;;;4.23;3.80;;;;;;;14.57;100.00;99435.69;631085;223;22711;-72
2021/05/11 06:56:20;;;;;;;3.60;3.30;;;;;;;14.98;100.00;99431.84;619373;227;33139;-72
2021/05/11 06:58:48;;;;;;;3.90;3.27;;;;;;;14.47;100.00;99436.01;627597;223;23887;-72
2021/05/11 07:01:19;;;;;;;3.67;3.43;;;;;;;14.44;100.00;99436.39;626495;228;24859;-71
2021/05/11 07:03:44;;;;;;;3.53;3.30;;;;;;;14.52;100.00;99438.89;624421;227;23891;-73
2021/05/11 07:06:13;;;;;;;4.43;3.97;;;;;;;14.74;100.00;99433.90;612996;231;24906;-71
2021/05/11 07:08:42;;;;;;;4.07;3.77;;;;;;;14.91;100.00;99429.67;635252;221;23916;-72
2021/05/11 07:11:23;;;;;;;4.03;3.73;;;;;;;15.02;100.00;99427.83;632537;225;23846;-72
2021/05/11 07:13:39;;;;;;;4.03;3.73;;;;;;;14.94;100.00;99433.23;636511;225;24826;-71
2021/05/11 07:16:07;;;;;;;4.77;3.83;;;;;;;14.93;100.00;99443.41;626648;227;25954;-72
2021/05/11 07:18:35;;;;;;;3.90;3.60;;;;;;;15.13;100.00;99436.45;628361;225;24881;-72
2021/05/11 07:21:02;;;;;;;3.87;3.57;;;;;;;15.20;100.00;99445.17;635343;225;24911;-72
2021/05/11 07:23:30;;;;;;;4.40;4.00;;;;;;;15.44;100.00;99450.41;627474;229;23885;-72
2021/05/11 07:26:05;;;;;;;3.33;3.03;;;;;;;15.45;100.00;99441.03;641958;221;24833;-72
2021/05/11 07:31:16;;;;;;;3.50;2.93;;;;;;;15.17;100.00;99437.67;624452;228;27038;-72
2021/05/11 07:33:45;;;;;;;4.63;3.40;;;;;;;15.18;100.00;99440.60;628758;227;23897;-74
2021/05/11 07:36:12;;;;;;;4.60;3.63;;;;;;;15.17;100.00;99442.11;625850;227;23907;-72
2021/05/11 07:38:40;;;;;;;3.23;2.93;;;;;;;15.53;100.00;99448.43;632730;222;23851;-72
2021/05/11 07:41:08;;;;;;;4.10;3.70;;;;;;;15.62;100.00;99442.86;644345;222;24905;-72
2021/05/11 07:43:37;;;;;;;3.50;3.20;;;;;;;15.58;100.00;99436.84;632137;225;31314;-72
2021/05/11 07:52:13;;;;;;;4.40;4.00;;;;;;;15.65;99.50;99437.22;640553;222;23876;-72
2021/05/11 08:02:23;;;;;;;3.70;3.40;;;;;;;16.79;94.72;99411.38;637029;225;22715;-73
2021/05/11 08:04:46;;;;;;;4.13;3.40;;;;;;;16.50;96.31;99405.53;633629;224;25063;-74
2021/05/11 08:10:07;;;;;;;3.90;3.50;;;;;;;17.59;89.61;99390.34;631902;220;32692;-72
2021/05/11 08:15:06;;;;;;;3.40;2.83;;;;;;;17.04;91.50;99401.83;617874;230;23933;-72
2021/05/11 08:17:33;;;;;;;3.53;3.23;;;;;;;17.31;90.27;99395.14;621342;230;23946;-71
2021/05/11 08:20:09;;;;;;;3.20;2.90;;;;;;;16.48;92.43;99409.38;621850;226;24924;-72
2021/05/11 08:22:45;;;;;;;2.43;2.30;;;;;;;16.87;90.35;99413.77;635114;225;23860;-72
2021/05/11 08:27:58;;;;;;;2.80;2.60;;;;;;;16.21;90.47;99402.01;612557;226;23847;-72
2021/05/11 08:30:25;;;;;;;2.83;2.40;;;;;;;16.70;91.06;99404.72;608781;229;33156;-71
2021/05/11 08:32:53;;;;;;;3.20;2.90;;;;;;;16.80;91.41;99406.43;622911;227;32851;-72
2021/05/11 08:35:22;;;;;;;3.50;3.20;;;;;;;16.60;92.47;99399.84;629024;227;22749;-72
2021/05/11 08:37:49;;;;;;;3.17;2.60;;;;;;;16.63;92.04;99403.41;635126;225;23866;-72
2021/05/11 08:40:18;;;;;;;1.67;1.57;;;;;;;16.23;91.38;99393.42;625810;229;24917;-71
2021/05/11 08:42:45;;;;;;;1.70;1.60;;;;;;;16.18;92.18;99398.45;642963;221;25089;-71
2021/05/11 08:45:15;;;;;;;1.52;1.42;;;;;;;16.62;90.58;99400.48;633386;222;32693;-72
2021/05/11 08:47:50;;;;;;;2.10;1.90;;;;;;;16.35;92.33;99404.13;641098;222;23768;-72
2021/05/11 08:50:20;;;;;;;3.37;2.20;;;;;;;15.92;91.83;99398.76;611851;232;26087;-71
2021/05/11 08:53:00;;;;;;;1.90;1.80;;;;;;;16.00;92.93;99410.86;632995;225;23927;-71
2021/05/11 08:59:53;;;;;;;1.97;1.87;;;;;;;15.96;95.60;99424.08;638017;225;24070;-72
2021/05/11 09:06:09;;;;;;;2.10;2.00;;;;;;;16.20;94.99;99423.51;620333;229;26914;-72
2021/05/11 09:08:42;;;;;;;2.10;1.90;;;;;;;16.25;93.08;99421.08;627989;225;23873;-71
2021/05/11 09:24:28;;;;;;;1.60;1.50;;;;;;;15.88;94.08;99431.61;641159;221;24860;-71
2021/05/11 09:26:49;;;;;;;1.93;1.73;;;;;;;15.84;94.29;99427.78;613131;232;23959;-71
2021/05/11 09:29:29;;;;;;;2.50;2.30;;;;;;;15.94;93.75;99428.21;626829;225;32663;-72
2021/05/11 09:32:02;;;;;;;2.53;2.00;;;;;;;15.68;95.28;99436.81;642127;222;23844;-71
2021/05/11 09:34:33;;;;;;;2.07;1.80;;;;;;;15.57;95.75;99436.54;640650;222;24813;-72
2021/05/11 09:45:16;;;;;;;2.77;2.07;;;;;;;15.76;95.90;99461.23;632009;225;23852;-71
2021/05/11 09:55:23;;;;;;;1.87;1.77;;;;;;;16.46;91.79;99441.56;637734;222;32925;-72
2021/05/11 09:57:54;;;;;;;3.13;1.80;;;;;;;16.04;91.86;99448.28;637117;225;23746;-72
2021/05/11 10:01:05;;;;;;;1.93;1.83;;;;;;;16.35;92.04;99454.00;628282;225;23868;-71
2021/05/11 10:41:32;;;;;;;2.77;2.30;;;;;;;15.74;94.91;99460.12;621186;225;23854;-72
2021/05/11 10:44:23;;;;;;;5.27;2.00;;;;;;;15.67;95.68;99452.24;641018;222;23858;-73
2021/05/11 10:46:50;;;;;;;2.03;1.90;;;;;;;15.87;94.68;99455.41;626767;225;23912;-72
2021/05/11 10:49:25;;;;;;;2.40;2.20;;;;;;;16.17;94.18;99456.68;609020;232;32993;-73
2021/05/11 10:52:03;;;;;;;2.13;1.93;;;;;;;16.02;94.95;99463.42;614692;231;22794;-72
2021/05/11 10:54:35;;;;;;;1.67;1.57;;;;;;;15.94;94.09;99471.98;631362;225;23856;-71
2021/05/11 10:57:06;;;;;;;1.57;1.47;;;;;;;15.75;94.92;99477.46;619222;231;23938;-71
2021/05/11 11:02:38;;;;;;;2.05;1.85;;;;;;;16.22;92.89;99473.16;628467;225;32699;-72
2021/05/11 11:05:05;;;;;;;1.60;1.50;;;;;;;15.88;94.79;99490.62;631835;224;22737;-71
2021/05/11 11:07:34;;;;;;;3.57;1.63;;;;;;;16.11;93.92;99492.10;638221;225;23844;-72
2021/05/11 11:10:02;;;;;;;3.00;2.30;;;;;;;16.13;94.54;99494.02;619130;227;24984;-71
2021/05/11 11:12:35;;;;;;;3.10;1.80;;;;;;;15.99;95.43;99494.48;624426;227;33167;-72
2021/05/11 11:15:05;;;;;;;2.10;1.90;;;;;;;15.65;97.08;99500.64;627634;225;22737;-72
2021/05/11 11:17:41;;;;;;;5.10;1.60;;;;;;;15.63;97.13;99511.83;633215;225;25937;-72
2021/05/11 11:20:11;;;;;;;2.73;1.70;;;;;;;15.29;100.00;99533.06;617308;228;23916;-72
2021/05/11 11:25:15;;;;;;;1.47;1.30;;;;;;;14.94;99.95;99544.02;640533;223;22714;-72
2021/05/11 11:27:43;;;;;;;2.03;1.73;;;;;;;14.75;100.00;99541.53;632736;224;23844;-72
2021/05/11 11:30:12;;;;;;;3.40;1.93;;;;;;;14.66;100.00;99547.92;626927;225;23851;-73
2021/05/11 11:32:40;;;;;;;2.00;1.37;;;;;;;14.48;100.00;99565.84;643056;222;23865;-73
2021/05/11 11:35:08;;;;;;;1.40;1.27;;;;;;;14.56;100.00;99569.66;640393;222;24864;-73
2021/05/11 11:37:36;;;;;;;2.07;1.47;;;;;;;14.61;100.00;99580.87;631345;225;24849;-73
2021/05/11 11:40:05;;;;;;;1.77;1.33;;;;;;;14.68;100.00;99581.25;634537;221;24875;-73
2021/05/11 11:42:35;;;;;;;1.80;1.37;;;;;;;14.33;100.00;99585.98;627903;226;24854;-72
2021/05/11 11:45:03;;;;;;;2.87;1.40;;;;;;;14.31;100.00;99588.78;635033;225;24828;-71
2021/05/11 11:47:29;;;;;;;2.23;1.60;;;;;;;14.00;100.00;99590.34;634407;225;26988;-71
2021/05/11 11:49:59;;;;;;;1.83;1.40;;;;;;;13.87;100.00;99577.91;635264;221;24827;-71
2021/05/11 11:52:30;;;;;;;2.43;1.40;;;;;;;13.87;100.00;99565.34;617815;229;24837;-71
2021/05/11 11:55:11;;;;;;;1.40;1.30;;;;;;;13.87;100.00;99577.10;617874;232;23945;-71
2021/05/11 12:00:07;;;;;;;2.20;1.40;;;;;;;13.96;100.00;99561.64;615265;230;26030;-71
2021/05/11 12:02:34;;;;;;;3.33;1.90;;;;;;;14.12;100.00;99552.27;613527;231;32973;-72
2021/05/11 12:05:10;;;;;;;13.13;2.13;;;;;;;14.16;100.00;99550.89;617686;230;23761;-72
2021/05/11 12:07:54;;;;;;;4.77;2.50;;;;;;;14.11;100.00;99550.65;615094;231;27121;-73
2021/05/11 12:10:08;;;;;;;4.57;2.20;;;;;;;14.27;100.00;99547.00;619590;227;24873;-72
2021/05/11 12:12:37;;;;;;;4.63;1.80;;;;;;;14.35;100.00;99546.86;628410;225;28132;-72
2021/05/11 12:15:11;;;;;;;1.77;1.67;;;;;;;14.56;100.00;99555.27;614134;229;27087;-73
2021/05/11 12:17:39;;;;;;;1.73;1.50;;;;;;;14.50;100.00;99556.83;618013;231;24940;-73
2021/05/11 12:20:20;;;;;;;1.40;1.30;;;;;;;14.49;100.00;99559.11;627136;225;24897;-72
2021/05/11 12:22:46;;;;;;;1.30;1.17;;;;;;;14.61;100.00;99559.42;616528;231;24957;-72
2021/05/11 12:25:23;;;;;;;1.53;1.30;;;;;;;14.58;100.00;99564.23;619381;230;23923;-72
2021/05/11 12:27:50;;;;;;;1.30;1.20;;;;;;;14.69;100.00;99568.47;617546;230;24888;-72
2021/05/11 12:30:19;;;;;;;1.33;1.20;;;;;;;14.77;100.00;99556.55;621139;226;24968;-73
2021/05/11 12:32:47;;;;;;;2.60;1.20;;;;;;;14.98;100.00;99543.95;616974;230;24925;-73
2021/05/11 12:35:15;;;;;;;2.33;1.40;;;;;;;15.11;100.00;99535.37;614462;231;24936;-72
2021/05/11 12:37:46;;;;;;;1.43;1.30;;;;;;;15.08;100.00;99537.08;643381;222;24835;-72
2021/05/11 12:40:24;;;;;;;1.20;1.20;;;;;;;15.08;100.00;99523.48;631388;222;23871;-72
2021/05/11 12:42:50;;;;;;;3.00;1.50;;;;;;;15.00;100.00;99517.56;618648;229;23968;-72
2021/05/11 12:45:18;;;;;;;1.20;1.10;;;;;;;15.04;100.00;99507.00;634441;225;23847;-73
2021/05/11 12:47:46;;;;;;;1.30;1.10;;;;;;;15.25;100.00;99503.02;627657;228;24876;-73
2021/05/11 12:50:15;;;;;;;1.23;0.90;;;;;;;15.30;100.00;99486.72;623601;226;23890;-72
2021/05/11 12:52:45;;;;;;;1.43;0.90;;;;;;;15.26;100.00;99477.13;618021;230;23918;-71
2021/05/11 12:55:19;;;;;;;2.07;1.10;;;;;;;15.28;100.00;99465.95;632216;225;23828;-73
2021/05/11 12:57:51;;;;;;;1.70;1.10;;;;;;;15.13;100.00;99466.08;636047;225;24830;-73
2021/05/11 13:00:15;;;;;;;1.20;1.17;;;;;;;15.21;100.00;99461.70;627252;225;23837;-72
2021/05/11 13:02:47;;;;;;;0.90;0.90;;;;;;;15.04;100.00;99455.44;621565;228;23886;-74
2021/05/11 13:26:44;;;;;;;1.90;1.57;;;;;;;15.12;100.00;99518.16;633614;225;24818;-73
2021/05/11 13:29:17;;;;;;;2.40;1.70;;;;;;;15.13;100.00;99520.27;632718;225;23836;-72
2021/05/11 13:31:41;;;;;;;2.10;1.30;;;;;;;15.45;100.00;99526.70;643116;222;28001;-72
2021/05/11 13:34:10;;;;;;;2.30;1.60;;;;;;;15.63;100.00;99530.17;639177;221;23838;-72
2021/05/11 13:36:37;;;;;;;1.83;1.73;;;;;;;16.08;100.00;99533.17;632142;225;23821;-72
2021/05/11 13:39:06;;;;;;;2.50;1.43;;;;;;;16.28;100.00;99532.70;632552;225;24112;-72
2021/05/11 13:41:34;;;;;;;1.67;1.30;;;;;;;15.96;100.00;99536.36;630172;225;23889;-73
2021/05/11 13:44:02;;;;;;;2.80;2.00;;;;;;;16.43;100.00;99533.84;626462;227;23883;-72
2021/05/11 13:46:30;;;;;;;1.80;1.70;;;;;;;16.42;100.00;99529.59;625429;227;23902;-73
2021/05/11 13:48:58;;;;;;;2.30;1.87;;;;;;;16.24;100.00;99534.11;626794;225;24862;-73
2021/05/11 13:51:26;;;;;;;3.23;1.77;;;;;;;15.68;100.00;99540.88;625450;228;24921;-72
2021/05/11 13:53:54;;;;;;;1.63;1.53;;;;;;;15.26;100.00;99549.18;628110;227;23904;-72
2021/05/11 13:56:37;;;;;;;3.83;1.50;;;;;;;15.23;100.00;99553.50;627651;225;24820;-72
2021/05/11 14:01:52;;;;;;;2.20;1.47;;;;;;;15.07;100.00;99553.29;617816;231;24892;-72
2021/05/11 14:04:09;;;;;;;2.53;2.13;;;;;;;15.35;100.00;99549.34;630208;224;23828;-73
2021/05/11 14:06:35;;;;;;;2.45;1.80;;;;;;;15.94;100.00;99556.73;619984;229;32738;-73
2021/05/11 14:09:04;;;;;;;2.72;1.90;;;;;;;15.98;100.00;99556.63;629544;225;34140;-72
2021/05/11 14:11:32;;;;;;;1.90;1.80;;;;;;;15.57;100.00;99574.16;642982;222;22731;-73
2021/05/11 14:14:00;;;;;;;2.60;2.20;;;;;;;16.16;100.00;99565.77;623536;225;32697;-72
2021/05/11 14:16:28;;;;;;;3.80;2.10;;;;;;;15.97;100.00;99572.06;628680;225;23785;-74
2021/05/11 14:18:56;;;;;;;2.30;1.83;;;;;;;15.94;100.00;99573.78;624059;226;24908;-71
2021/05/11 14:21:24;;;;;;;1.80;1.70;;;;;;;15.50;100.00;99572.82;623712;225;23867;-71
2021/05/11 14:23:53;;;;;;;1.83;1.60;;;;;;;15.83;100.00;99571.70;631796;225;24927;-71
2021/05/11 14:26:20;;;;;;;1.53;1.30;;;;;;;15.80;100.00;99566.86;635369;225;24904;-72
2021/05/11 14:28:48;;;;;;;1.60;1.50;;;;;;;15.57;100.00;99575.47;631358;225;24883;-72
2021/05/11 14:31:16;;;;;;;1.30;1.20;;;;;;;15.80;100.00;99574.72;615348;232;24939;-71
2021/05/11 14:33:44;;;;;;;1.40;1.30;;;;;;;15.57;100.00;99574.97;631282;225;23864;-73
2021/05/11 14:36:12;;;;;;;1.33;1.23;;;;;;;15.69;100.00;99570.02;640104;222;23859;-72
2021/05/11 14:38:40;;;;;;;1.80;1.70;;;;;;;15.69;100.00;99566.09;640413;221;24875;-72
2021/05/11 14:41:08;;;;;;;1.60;1.50;;;;;;;15.91;100.00;99567.62;630811;225;23863;-72